sensor_id;sensor_type;location;lat;lon;timestamp;P1;durP1;ratioP1;P2;durP2;ratioP2
23682;SDS011;24897;53.514;10.482;2022-12-18T00:02:16;79.50;;;56.17;;
23682;SDS011;24897;53.514;10.482;2022-12-18T00:05:00;77.17;;;56.83;;
23682;SDS011;24897;53.514;10.482;2022-12-18T00:07:44;76.80;;;56.67;;
23682;SDS011;24897;53.514;10.482;2022-12-18T00:10:29;80.47;;;57.33;;
23682;SDS011;24897;53.514;10.482;2022-12-18T00:13:13;79.60;;;57.80;;
23682;SDS011;24897;53.514;10.482;2022-12-18T00:16:01;77.50;;;56.37;;
23682;SDS011;24897;53.514;10.482;2022-12-18T00:18:50;80.57;;;56.40;;
23682;SDS011;24897;53.514;10.482;2022-12-18T00:21:37;80.60;;;57.77;;
23682;SDS011;24897;53.514;10.482;2022-12-18T00:24:21;79.30;;;57.43;;
23682;SDS011;24897;53.514;10.482;2022-12-18T00:27:05;78.73;;;56.93;;
23682;SDS011;24897;53.514;10.482;2022-12-18T00:29:49;73.07;;;55.77;;
23682;SDS011;24897;53.514;10.482;2022-12-18T00:32:33;76.17;;;56.60;;
23682;SDS011;24897;53.514;10.482;2022-12-18T00:35:17;78.67;;;55.97;;
23682;SDS011;24897;53.514;10.482;2022-12-18T00:38:02;73.37;;;54.10;;
23682;SDS011;24897;53.514;10.482;2022-12-18T00:40:48;79.37;;;57.23;;
23682;SDS011;24897;53.514;10.482;2022-12-18T00:43:32;73.17;;;54.07;;
23682;SDS011;24897;53.514;10.482;2022-12-18T00:46:16;69.60;;;53.43;;
23682;SDS011;24897;53.514;10.482;2022-12-18T00:49:01;75.07;;;56.13;;
23682;SDS011;24897;53.514;10.482;2022-12-18T00:51:46;73.37;;;54.43;;
23682;SDS011;24897;53.514;10.482;2022-12-18T00:54:31;74.03;;;53.07;;
23682;SDS011;24897;53.514;10.482;2022-12-18T00:57:15;69.67;;;51.83;;
23682;SDS011;24897;53.514;10.482;2022-12-18T00:59:59;67.23;;;51.57;;
23682;SDS011;24897;53.514;10.482;2022-12-18T01:02:44;72.43;;;51.90;;
23682;SDS011;24897;53.514;10.482;2022-12-18T01:05:28;67.03;;;51.00;;
23682;SDS011;24897;53.514;10.482;2022-12-18T01:08:12;70.27;;;50.77;;
23682;SDS011;24897;53.514;10.482;2022-12-18T01:10:56;68.97;;;51.10;;
23682;SDS011;24897;53.514;10.482;2022-12-18T01:13:40;68.27;;;51.07;;
23682;SDS011;24897;53.514;10.482;2022-12-18T01:16:25;68.97;;;51.47;;
23682;SDS011;24897;53.514;10.482;2022-12-18T01:19:09;67.73;;;52.80;;
23682;SDS011;24897;53.514;10.482;2022-12-18T01:21:53;67.47;;;51.47;;
23682;SDS011;24897;53.514;10.482;2022-12-18T01:24:37;72.87;;;52.67;;
23682;SDS011;24897;53.514;10.482;2022-12-18T01:27:21;71.10;;;52.47;;
23682;SDS011;24897;53.514;10.482;2022-12-18T01:30:06;69.60;;;51.87;;
23682;SDS011;24897;53.514;10.482;2022-12-18T01:32:50;75.37;;;53.27;;
23682;SDS011;24897;53.514;10.482;2022-12-18T01:35:39;74.60;;;55.93;;
23682;SDS011;24897;53.514;10.482;2022-12-18T01:38:29;75.17;;;54.77;;
23682;SDS011;24897;53.514;10.482;2022-12-18T01:41:14;70.57;;;55.03;;
23682;SDS011;24897;53.514;10.482;2022-12-18T01:44:01;69.60;;;52.50;;
23682;SDS011;24897;53.514;10.482;2022-12-18T01:46:46;71.03;;;53.03;;
23682;SDS011;24897;53.514;10.482;2022-12-18T01:49:30;69.70;;;52.73;;
23682;SDS011;24897;53.514;10.482;2022-12-18T01:52:15;69.90;;;52.20;;
23682;SDS011;24897;53.514;10.482;2022-12-18T01:55:00;71.57;;;53.70;;
23682;SDS011;24897;53.514;10.482;2022-12-18T01:57:47;74.07;;;55.57;;
23682;SDS011;24897;53.514;10.482;2022-12-18T02:00:33;74.30;;;54.13;;
23682;SDS011;24897;53.514;10.482;2022-12-18T02:03:17;77.93;;;54.90;;
23682;SDS011;24897;53.514;10.482;2022-12-18T02:06:13;72.23;;;53.70;;
23682;SDS011;24897;53.514;10.482;2022-12-18T02:09:20;72.83;;;54.13;;
23682;SDS011;24897;53.514;10.482;2022-12-18T02:12:19;71.10;;;52.83;;
23682;SDS011;24897;53.514;10.482;2022-12-18T02:15:16;74.17;;;52.63;;
23682;SDS011;24897;53.514;10.482;2022-12-18T02:18:04;72.53;;;54.67;;
23682;SDS011;24897;53.514;10.482;2022-12-18T02:27:13;75.00;;;55.67;;
23682;SDS011;24897;53.514;10.482;2022-12-18T02:29:57;76.60;;;54.70;;
23682;SDS011;24897;53.514;10.482;2022-12-18T02:32:49;75.90;;;56.40;;
23682;SDS011;24897;53.514;10.482;2022-12-18T02:35:35;71.37;;;54.53;;
23682;SDS011;24897;53.514;10.482;2022-12-18T02:38:20;73.70;;;53.17;;
23682;SDS011;24897;53.514;10.482;2022-12-18T02:41:06;77.23;;;55.47;;
23682;SDS011;24897;53.514;10.482;2022-12-18T02:43:56;77.17;;;56.07;;
23682;SDS011;24897;53.514;10.482;2022-12-18T02:46:45;75.43;;;55.93;;
23682;SDS011;24897;53.514;10.482;2022-12-18T02:49:44;80.77;;;56.17;;
23682;SDS011;24897;53.514;10.482;2022-12-18T02:55:58;81.00;;;57.10;;
23682;SDS011;24897;53.514;10.482;2022-12-18T03:07:40;81.17;;;57.33;;
23682;SDS011;24897;53.514;10.482;2022-12-18T03:10:31;80.87;;;54.83;;
23682;SDS011;24897;53.514;10.482;2022-12-18T03:13:31;77.37;;;55.30;;
23682;SDS011;24897;53.514;10.482;2022-12-18T03:16:24;80.57;;;56.73;;
23682;SDS011;24897;53.514;10.482;2022-12-18T03:19:13;78.43;;;57.07;;
23682;SDS011;24897;53.514;10.482;2022-12-18T03:22:02;77.93;;;56.90;;
23682;SDS011;24897;53.514;10.482;2022-12-18T03:24:47;82.03;;;56.10;;
23682;SDS011;24897;53.514;10.482;2022-12-18T03:27:32;81.23;;;57.23;;
23682;SDS011;24897;53.514;10.482;2022-12-18T03:30:19;82.67;;;58.03;;
23682;SDS011;24897;53.514;10.482;2022-12-18T03:33:08;83.17;;;59.47;;
23682;SDS011;24897;53.514;10.482;2022-12-18T03:35:55;89.70;;;61.43;;
23682;SDS011;24897;53.514;10.482;2022-12-18T03:38:40;86.13;;;60.57;;
23682;SDS011;24897;53.514;10.482;2022-12-18T03:44:30;83.53;;;59.23;;
23682;SDS011;24897;53.514;10.482;2022-12-18T03:53:47;82.67;;;57.50;;
23682;SDS011;24897;53.514;10.482;2022-12-18T03:56:48;84.83;;;58.17;;
23682;SDS011;24897;53.514;10.482;2022-12-18T03:59:40;85.07;;;59.30;;
23682;SDS011;24897;53.514;10.482;2022-12-18T04:02:26;86.87;;;60.00;;
23682;SDS011;24897;53.514;10.482;2022-12-18T04:05:13;94.30;;;58.93;;
23682;SDS011;24897;53.514;10.482;2022-12-18T04:07:59;87.33;;;58.57;;
23682;SDS011;24897;53.514;10.482;2022-12-18T04:10:44;86.30;;;59.83;;
23682;SDS011;24897;53.514;10.482;2022-12-18T04:13:30;86.17;;;57.47;;
23682;SDS011;24897;53.514;10.482;2022-12-18T04:16:17;83.27;;;57.50;;
23682;SDS011;24897;53.514;10.482;2022-12-18T04:19:01;83.40;;;58.00;;
23682;SDS011;24897;53.514;10.482;2022-12-18T04:21:46;87.97;;;58.87;;
23682;SDS011;24897;53.514;10.482;2022-12-18T04:24:30;87.00;;;59.67;;
23682;SDS011;24897;53.514;10.482;2022-12-18T04:27:15;80.67;;;56.30;;
23682;SDS011;24897;53.514;10.482;2022-12-18T04:29:59;90.07;;;59.37;;
23682;SDS011;24897;53.514;10.482;2022-12-18T04:32:44;88.87;;;59.90;;
23682;SDS011;24897;53.514;10.482;2022-12-18T04:35:28;90.37;;;59.20;;
23682;SDS011;24897;53.514;10.482;2022-12-18T04:38:13;97.27;;;60.67;;
23682;SDS011;24897;53.514;10.482;2022-12-18T04:41:00;86.13;;;60.07;;
23682;SDS011;24897;53.514;10.482;2022-12-18T04:43:44;87.67;;;59.40;;
23682;SDS011;24897;53.514;10.482;2022-12-18T04:46:28;86.07;;;60.00;;
23682;SDS011;24897;53.514;10.482;2022-12-18T04:49:12;84.77;;;59.13;;
23682;SDS011;24897;53.514;10.482;2022-12-18T04:51:56;87.40;;;57.43;;
23682;SDS011;24897;53.514;10.482;2022-12-18T04:54:41;83.00;;;57.97;;
23682;SDS011;24897;53.514;10.482;2022-12-18T04:57:25;87.77;;;59.77;;
23682;SDS011;24897;53.514;10.482;2022-12-18T05:00:09;88.90;;;59.23;;
23682;SDS011;24897;53.514;10.482;2022-12-18T05:02:54;89.23;;;60.73;;
23682;SDS011;24897;53.514;10.482;2022-12-18T05:05:38;84.67;;;58.30;;
23682;SDS011;24897;53.514;10.482;2022-12-18T05:08:23;85.80;;;57.77;;
23682;SDS011;24897;53.514;10.482;2022-12-18T05:11:09;82.70;;;58.33;;
23682;SDS011;24897;53.514;10.482;2022-12-18T05:13:59;84.10;;;56.63;;
23682;SDS011;24897;53.514;10.482;2022-12-18T05:16:44;82.87;;;56.77;;
23682;SDS011;24897;53.514;10.482;2022-12-18T05:19:28;86.27;;;57.17;;
23682;SDS011;24897;53.514;10.482;2022-12-18T05:22:12;84.57;;;55.90;;
23682;SDS011;24897;53.514;10.482;2022-12-18T05:24:56;86.13;;;56.87;;
23682;SDS011;24897;53.514;10.482;2022-12-18T05:27:40;85.47;;;58.40;;
23682;SDS011;24897;53.514;10.482;2022-12-18T05:30:25;90.53;;;57.73;;
23682;SDS011;24897;53.514;10.482;2022-12-18T05:33:10;82.17;;;58.00;;
23682;SDS011;24897;53.514;10.482;2022-12-18T05:35:54;84.37;;;57.17;;
23682;SDS011;24897;53.514;10.482;2022-12-18T05:38:41;81.90;;;57.57;;
23682;SDS011;24897;53.514;10.482;2022-12-18T05:41:25;80.37;;;56.07;;
23682;SDS011;24897;53.514;10.482;2022-12-18T05:44:10;78.77;;;55.27;;
23682;SDS011;24897;53.514;10.482;2022-12-18T05:46:54;82.80;;;56.80;;
23682;SDS011;24897;53.514;10.482;2022-12-18T05:49:38;77.53;;;55.63;;
23682;SDS011;24897;53.514;10.482;2022-12-18T05:52:23;79.43;;;56.47;;
23682;SDS011;24897;53.514;10.482;2022-12-18T05:55:08;86.10;;;56.17;;
23682;SDS011;24897;53.514;10.482;2022-12-18T05:57:52;87.73;;;56.67;;
23682;SDS011;24897;53.514;10.482;2022-12-18T06:00:39;83.17;;;56.93;;
23682;SDS011;24897;53.514;10.482;2022-12-18T06:03:26;81.70;;;56.27;;
23682;SDS011;24897;53.514;10.482;2022-12-18T06:06:17;81.47;;;55.40;;
23682;SDS011;24897;53.514;10.482;2022-12-18T06:09:02;81.57;;;55.33;;
23682;SDS011;24897;53.514;10.482;2022-12-18T06:11:52;83.20;;;55.17;;
23682;SDS011;24897;53.514;10.482;2022-12-18T06:14:36;86.67;;;55.17;;
23682;SDS011;24897;53.514;10.482;2022-12-18T06:17:20;86.93;;;56.20;;
23682;SDS011;24897;53.514;10.482;2022-12-18T06:20:04;82.40;;;54.97;;
23682;SDS011;24897;53.514;10.482;2022-12-18T06:22:50;82.50;;;55.53;;
23682;SDS011;24897;53.514;10.482;2022-12-18T06:25:37;84.30;;;54.53;;
23682;SDS011;24897;53.514;10.482;2022-12-18T06:28:22;81.60;;;55.13;;
23682;SDS011;24897;53.514;10.482;2022-12-18T06:31:06;79.87;;;54.57;;
23682;SDS011;24897;53.514;10.482;2022-12-18T06:33:53;84.20;;;55.37;;
23682;SDS011;24897;53.514;10.482;2022-12-18T06:36:37;83.93;;;57.70;;
23682;SDS011;24897;53.514;10.482;2022-12-18T06:39:21;77.17;;;55.80;;
23682;SDS011;24897;53.514;10.482;2022-12-18T06:42:05;82.80;;;56.03;;
23682;SDS011;24897;53.514;10.482;2022-12-18T06:44:49;85.43;;;57.00;;
23682;SDS011;24897;53.514;10.482;2022-12-18T06:47:33;80.43;;;56.23;;
23682;SDS011;24897;53.514;10.482;2022-12-18T06:50:18;81.40;;;55.97;;
23682;SDS011;24897;53.514;10.482;2022-12-18T06:53:02;83.00;;;56.10;;
23682;SDS011;24897;53.514;10.482;2022-12-18T06:55:47;78.70;;;54.30;;
23682;SDS011;24897;53.514;10.482;2022-12-18T06:58:32;84.20;;;57.50;;
23682;SDS011;24897;53.514;10.482;2022-12-18T07:01:17;80.40;;;56.00;;
23682;SDS011;24897;53.514;10.482;2022-12-18T07:04:02;85.10;;;55.27;;
23682;SDS011;24897;53.514;10.482;2022-12-18T07:06:46;80.07;;;54.77;;
23682;SDS011;24897;53.514;10.482;2022-12-18T07:09:30;83.50;;;54.67;;
23682;SDS011;24897;53.514;10.482;2022-12-18T07:12:14;73.20;;;52.23;;
23682;SDS011;24897;53.514;10.482;2022-12-18T07:14:58;89.00;;;55.70;;
23682;SDS011;24897;53.514;10.482;2022-12-18T07:17:42;75.67;;;51.77;;
23682;SDS011;24897;53.514;10.482;2022-12-18T07:20:27;79.50;;;55.30;;
23682;SDS011;24897;53.514;10.482;2022-12-18T07:23:11;79.37;;;53.97;;
23682;SDS011;24897;53.514;10.482;2022-12-18T07:25:59;77.33;;;53.73;;
23682;SDS011;24897;53.514;10.482;2022-12-18T07:28:47;79.20;;;54.10;;
23682;SDS011;24897;53.514;10.482;2022-12-18T07:31:32;78.40;;;56.10;;
23682;SDS011;24897;53.514;10.482;2022-12-18T07:34:16;81.43;;;54.97;;
23682;SDS011;24897;53.514;10.482;2022-12-18T07:37:00;91.27;;;57.97;;
23682;SDS011;24897;53.514;10.482;2022-12-18T07:39:44;90.10;;;56.70;;
23682;SDS011;24897;53.514;10.482;2022-12-18T07:42:28;93.23;;;58.73;;
23682;SDS011;24897;53.514;10.482;2022-12-18T07:45:15;77.73;;;54.20;;
23682;SDS011;24897;53.514;10.482;2022-12-18T07:48:00;75.83;;;52.67;;
23682;SDS011;24897;53.514;10.482;2022-12-18T07:50:44;75.80;;;52.20;;
23682;SDS011;24897;53.514;10.482;2022-12-18T07:53:28;73.90;;;51.80;;
23682;SDS011;24897;53.514;10.482;2022-12-18T07:56:12;78.90;;;52.13;;
23682;SDS011;24897;53.514;10.482;2022-12-18T07:58:57;81.20;;;52.97;;
23682;SDS011;24897;53.514;10.482;2022-12-18T08:01:42;73.87;;;51.47;;
23682;SDS011;24897;53.514;10.482;2022-12-18T08:04:30;74.27;;;50.80;;
23682;SDS011;24897;53.514;10.482;2022-12-18T08:07:14;83.37;;;53.17;;
23682;SDS011;24897;53.514;10.482;2022-12-18T08:09:58;75.73;;;52.03;;
23682;SDS011;24897;53.514;10.482;2022-12-18T08:12:42;77.50;;;51.47;;
23682;SDS011;24897;53.514;10.482;2022-12-18T08:15:26;78.63;;;51.73;;
23682;SDS011;24897;53.514;10.482;2022-12-18T08:18:11;76.97;;;51.17;;
23682;SDS011;24897;53.514;10.482;2022-12-18T08:20:55;70.30;;;48.57;;
23682;SDS011;24897;53.514;10.482;2022-12-18T08:23:40;73.17;;;50.37;;
23682;SDS011;24897;53.514;10.482;2022-12-18T08:26:25;70.63;;;49.83;;
23682;SDS011;24897;53.514;10.482;2022-12-18T08:29:11;79.60;;;51.03;;
23682;SDS011;24897;53.514;10.482;2022-12-18T08:31:55;80.23;;;52.23;;
23682;SDS011;24897;53.514;10.482;2022-12-18T08:34:40;76.80;;;49.53;;
23682;SDS011;24897;53.514;10.482;2022-12-18T08:37:24;71.27;;;47.77;;
23682;SDS011;24897;53.514;10.482;2022-12-18T08:40:08;79.93;;;49.50;;
23682;SDS011;24897;53.514;10.482;2022-12-18T08:42:53;75.77;;;48.67;;
23682;SDS011;24897;53.514;10.482;2022-12-18T08:45:56;78.00;;;51.10;;
23682;SDS011;24897;53.514;10.482;2022-12-18T08:48:40;71.50;;;48.30;;
23682;SDS011;24897;53.514;10.482;2022-12-18T08:51:25;74.43;;;49.83;;
23682;SDS011;24897;53.514;10.482;2022-12-18T08:54:10;67.97;;;49.87;;
23682;SDS011;24897;53.514;10.482;2022-12-18T08:56:56;74.00;;;49.57;;
23682;SDS011;24897;53.514;10.482;2022-12-18T08:59:43;70.07;;;47.60;;
23682;SDS011;24897;53.514;10.482;2022-12-18T09:02:27;70.63;;;48.27;;
23682;SDS011;24897;53.514;10.482;2022-12-18T09:05:11;76.57;;;50.63;;
23682;SDS011;24897;53.514;10.482;2022-12-18T09:07:55;69.30;;;49.80;;
23682;SDS011;24897;53.514;10.482;2022-12-18T09:10:47;68.27;;;48.97;;
23682;SDS011;24897;53.514;10.482;2022-12-18T09:13:33;68.20;;;47.70;;
23682;SDS011;24897;53.514;10.482;2022-12-18T09:16:17;71.47;;;49.57;;
23682;SDS011;24897;53.514;10.482;2022-12-18T09:19:04;71.43;;;48.07;;
23682;SDS011;24897;53.514;10.482;2022-12-18T09:21:48;74.10;;;48.20;;
23682;SDS011;24897;53.514;10.482;2022-12-18T09:24:33;70.77;;;48.00;;
23682;SDS011;24897;53.514;10.482;2022-12-18T09:27:18;69.33;;;47.90;;
23682;SDS011;24897;53.514;10.482;2022-12-18T09:30:03;74.87;;;48.40;;
23682;SDS011;24897;53.514;10.482;2022-12-18T09:32:47;67.83;;;46.37;;
23682;SDS011;24897;53.514;10.482;2022-12-18T09:35:32;71.60;;;45.67;;
23682;SDS011;24897;53.514;10.482;2022-12-18T09:38:18;73.60;;;47.03;;
23682;SDS011;24897;53.514;10.482;2022-12-18T09:44:21;70.77;;;45.90;;
23682;SDS011;24897;53.514;10.482;2022-12-18T09:47:13;70.03;;;46.27;;
23682;SDS011;24897;53.514;10.482;2022-12-18T09:50:04;63.33;;;44.03;;
23682;SDS011;24897;53.514;10.482;2022-12-18T09:52:58;63.53;;;43.67;;
23682;SDS011;24897;53.514;10.482;2022-12-18T09:55:46;64.30;;;43.03;;
23682;SDS011;24897;53.514;10.482;2022-12-18T09:58:36;67.43;;;40.63;;
23682;SDS011;24897;53.514;10.482;2022-12-18T10:01:28;62.70;;;40.87;;
23682;SDS011;24897;53.514;10.482;2022-12-18T10:04:13;58.00;;;39.77;;
23682;SDS011;24897;53.514;10.482;2022-12-18T10:07:03;54.73;;;38.43;;
23682;SDS011;24897;53.514;10.482;2022-12-18T10:22:10;58.57;;;49.80;;
23682;SDS011;24897;53.514;10.482;2022-12-18T10:28:07;62.03;;;49.77;;
23682;SDS011;24897;53.514;10.482;2022-12-18T10:30:56;61.07;;;50.00;;
23682;SDS011;24897;53.514;10.482;2022-12-18T10:33:40;58.10;;;48.53;;
23682;SDS011;24897;53.514;10.482;2022-12-18T10:36:24;59.67;;;48.17;;
23682;SDS011;24897;53.514;10.482;2022-12-18T10:39:19;57.90;;;47.97;;
23682;SDS011;24897;53.514;10.482;2022-12-18T10:42:18;61.90;;;46.87;;
23682;SDS011;24897;53.514;10.482;2022-12-18T10:45:09;47.20;;;32.97;;
23682;SDS011;24897;53.514;10.482;2022-12-18T10:47:55;49.57;;;33.27;;
23682;SDS011;24897;53.514;10.482;2022-12-18T10:50:39;52.93;;;32.80;;
23682;SDS011;24897;53.514;10.482;2022-12-18T10:53:29;51.57;;;33.07;;
23682;SDS011;24897;53.514;10.482;2022-12-18T10:56:16;48.83;;;32.17;;
23682;SDS011;24897;53.514;10.482;2022-12-18T10:59:05;51.20;;;41.47;;
23682;SDS011;24897;53.514;10.482;2022-12-18T11:01:57;49.13;;;41.40;;
23682;SDS011;24897;53.514;10.482;2022-12-18T11:04:49;47.80;;;38.87;;
23682;SDS011;24897;53.514;10.482;2022-12-18T11:07:47;47.93;;;39.53;;
23682;SDS011;24897;53.514;10.482;2022-12-18T11:10:33;50.87;;;38.10;;
23682;SDS011;24897;53.514;10.482;2022-12-18T11:13:21;47.53;;;37.63;;
23682;SDS011;24897;53.514;10.482;2022-12-18T11:16:07;44.03;;;36.37;;
23682;SDS011;24897;53.514;10.482;2022-12-18T11:19:13;43.63;;;36.40;;
23682;SDS011;24897;53.514;10.482;2022-12-18T11:22:18;44.03;;;35.70;;
23682;SDS011;24897;53.514;10.482;2022-12-18T11:27:56;43.27;;;36.93;;
23682;SDS011;24897;53.514;10.482;2022-12-18T11:30:44;34.37;;;26.03;;
23682;SDS011;24897;53.514;10.482;2022-12-18T11:33:29;37.53;;;26.10;;
23682;SDS011;24897;53.514;10.482;2022-12-18T11:36:13;39.77;;;26.10;;
23682;SDS011;24897;53.514;10.482;2022-12-18T11:39:00;38.77;;;27.43;;
23682;SDS011;24897;53.514;10.482;2022-12-18T11:41:59;37.40;;;27.13;;
23682;SDS011;24897;53.514;10.482;2022-12-18T11:48:01;40.37;;;27.90;;
23682;SDS011;24897;53.514;10.482;2022-12-18T11:50:57;43.17;;;28.50;;
23682;SDS011;24897;53.514;10.482;2022-12-18T11:53:43;41.10;;;28.67;;
23682;SDS011;24897;53.514;10.482;2022-12-18T12:08:08;43.67;;;27.73;;
23682;SDS011;24897;53.514;10.482;2022-12-18T12:35:27;47.13;;;31.17;;
23682;SDS011;24897;53.514;10.482;2022-12-18T12:38:16;71.90;;;64.13;;
23682;SDS011;24897;53.514;10.482;2022-12-18T12:41:11;73.87;;;65.97;;
23682;SDS011;24897;53.514;10.482;2022-12-18T12:44:24;75.03;;;66.87;;
23682;SDS011;24897;53.514;10.482;2022-12-18T12:47:20;73.83;;;65.83;;
23682;SDS011;24897;53.514;10.482;2022-12-18T12:50:16;80.93;;;68.80;;
23682;SDS011;24897;53.514;10.482;2022-12-18T12:53:02;75.77;;;67.53;;
23682;SDS011;24897;53.514;10.482;2022-12-18T12:55:51;75.17;;;66.60;;
23682;SDS011;24897;53.514;10.482;2022-12-18T12:58:39;71.80;;;62.67;;
23682;SDS011;24897;53.514;10.482;2022-12-18T13:07:39;65.20;;;51.63;;
23682;SDS011;24897;53.514;10.482;2022-12-18T13:10:40;64.23;;;53.23;;
23682;SDS011;24897;53.514;10.482;2022-12-18T13:13:27;63.87;;;52.63;;
23682;SDS011;24897;53.514;10.482;2022-12-18T13:16:33;62.50;;;52.53;;
23682;SDS011;24897;53.514;10.482;2022-12-18T13:19:21;69.37;;;56.23;;
23682;SDS011;24897;53.514;10.482;2022-12-18T13:25:28;73.67;;;57.57;;
23682;SDS011;24897;53.514;10.482;2022-12-18T13:34:26;74.87;;;61.70;;
23682;SDS011;24897;53.514;10.482;2022-12-18T13:43:27;80.20;;;64.03;;
23682;SDS011;24897;53.514;10.482;2022-12-18T13:46:23;75.77;;;62.57;;
23682;SDS011;24897;53.514;10.482;2022-12-18T13:49:43;76.67;;;61.33;;
23682;SDS011;24897;53.514;10.482;2022-12-18T13:52:28;82.90;;;65.97;;
23682;SDS011;24897;53.514;10.482;2022-12-18T13:55:18;83.47;;;67.00;;
23682;SDS011;24897;53.514;10.482;2022-12-18T13:58:04;81.53;;;71.90;;
23682;SDS011;24897;53.514;10.482;2022-12-18T14:00:50;88.50;;;75.53;;
23682;SDS011;24897;53.514;10.482;2022-12-18T14:03:34;90.27;;;73.43;;
23682;SDS011;24897;53.514;10.482;2022-12-18T14:06:18;99.40;;;77.53;;
23682;SDS011;24897;53.514;10.482;2022-12-18T14:09:03;98.43;;;79.93;;
23682;SDS011;24897;53.514;10.482;2022-12-18T14:11:49;105.37;;;90.70;;
23682;SDS011;24897;53.514;10.482;2022-12-18T14:14:34;97.57;;;83.13;;
23682;SDS011;24897;53.514;10.482;2022-12-18T14:17:18;95.43;;;85.00;;
23682;SDS011;24897;53.514;10.482;2022-12-18T14:20:03;100.60;;;83.73;;
23682;SDS011;24897;53.514;10.482;2022-12-18T14:22:56;102.77;;;87.17;;
23682;SDS011;24897;53.514;10.482;2022-12-18T14:25:45;96.57;;;85.30;;
23682;SDS011;24897;53.514;10.482;2022-12-18T14:28:29;96.60;;;85.27;;
23682;SDS011;24897;53.514;10.482;2022-12-18T14:31:24;97.37;;;84.73;;
23682;SDS011;24897;53.514;10.482;2022-12-18T14:34:16;104.10;;;87.90;;
23682;SDS011;24897;53.514;10.482;2022-12-18T14:37:01;98.57;;;84.57;;
23682;SDS011;24897;53.514;10.482;2022-12-18T14:40:19;98.00;;;83.70;;
23682;SDS011;24897;53.514;10.482;2022-12-18T14:42:56;102.13;;;84.60;;
23682;SDS011;24897;53.514;10.482;2022-12-18T14:45:41;106.57;;;88.83;;
23682;SDS011;24897;53.514;10.482;2022-12-18T14:51:25;104.20;;;86.70;;
23682;SDS011;24897;53.514;10.482;2022-12-18T14:54:14;107.17;;;86.50;;
23682;SDS011;24897;53.514;10.482;2022-12-18T15:00:06;95.90;;;79.37;;
23682;SDS011;24897;53.514;10.482;2022-12-18T15:02:59;106.63;;;78.57;;
23682;SDS011;24897;53.514;10.482;2022-12-18T15:05:43;103.20;;;78.13;;
23682;SDS011;24897;53.514;10.482;2022-12-18T15:08:35;97.77;;;72.93;;
23682;SDS011;24897;53.514;10.482;2022-12-18T15:11:28;104.80;;;74.10;;
23682;SDS011;24897;53.514;10.482;2022-12-18T15:14:22;98.60;;;70.57;;
23682;SDS011;24897;53.514;10.482;2022-12-18T15:17:18;100.83;;;69.13;;
23682;SDS011;24897;53.514;10.482;2022-12-18T15:20:09;100.60;;;64.47;;
23682;SDS011;24897;53.514;10.482;2022-12-18T15:22:54;89.30;;;61.93;;
23682;SDS011;24897;53.514;10.482;2022-12-18T15:25:39;91.50;;;60.90;;
23682;SDS011;24897;53.514;10.482;2022-12-18T15:28:29;89.70;;;60.20;;
23682;SDS011;24897;53.514;10.482;2022-12-18T15:34:22;98.20;;;62.50;;
23682;SDS011;24897;53.514;10.482;2022-12-18T15:37:09;99.33;;;65.90;;
23682;SDS011;24897;53.514;10.482;2022-12-18T15:39:53;89.43;;;50.33;;
23682;SDS011;24897;53.514;10.482;2022-12-18T15:42:37;94.93;;;52.00;;
23682;SDS011;24897;53.514;10.482;2022-12-18T15:45:40;85.40;;;53.57;;
23682;SDS011;24897;53.514;10.482;2022-12-18T15:48:24;90.13;;;51.60;;
23682;SDS011;24897;53.514;10.482;2022-12-18T15:54:08;85.27;;;52.13;;
23682;SDS011;24897;53.514;10.482;2022-12-18T15:56:56;87.03;;;51.80;;
23682;SDS011;24897;53.514;10.482;2022-12-18T15:59:59;93.70;;;53.10;;
23682;SDS011;24897;53.514;10.482;2022-12-18T16:02:44;92.37;;;52.50;;
23682;SDS011;24897;53.514;10.482;2022-12-18T16:05:28;90.57;;;53.13;;
23682;SDS011;24897;53.514;10.482;2022-12-18T16:08:12;89.43;;;51.47;;
23682;SDS011;24897;53.514;10.482;2022-12-18T16:10:56;92.33;;;51.47;;
23682;SDS011;24897;53.514;10.482;2022-12-18T16:13:41;85.63;;;50.93;;
23682;SDS011;24897;53.514;10.482;2022-12-18T16:16:25;93.53;;;50.77;;
23682;SDS011;24897;53.514;10.482;2022-12-18T16:19:09;86.17;;;49.40;;
23682;SDS011;24897;53.514;10.482;2022-12-18T16:21:54;79.70;;;49.00;;
23682;SDS011;24897;53.514;10.482;2022-12-18T16:24:39;84.23;;;49.10;;
23682;SDS011;24897;53.514;10.482;2022-12-18T16:27:24;84.40;;;48.13;;
23682;SDS011;24897;53.514;10.482;2022-12-18T16:30:12;78.43;;;48.30;;
23682;SDS011;24897;53.514;10.482;2022-12-18T16:32:58;85.43;;;49.90;;
23682;SDS011;24897;53.514;10.482;2022-12-18T16:35:50;80.43;;;48.47;;
23682;SDS011;24897;53.514;10.482;2022-12-18T16:38:35;79.70;;;50.13;;
23682;SDS011;24897;53.514;10.482;2022-12-18T16:41:19;80.10;;;50.37;;
23682;SDS011;24897;53.514;10.482;2022-12-18T16:44:16;78.17;;;49.90;;
23682;SDS011;24897;53.514;10.482;2022-12-18T16:47:00;78.17;;;49.80;;
23682;SDS011;24897;53.514;10.482;2022-12-18T16:49:45;77.93;;;50.10;;
23682;SDS011;24897;53.514;10.482;2022-12-18T16:52:30;72.43;;;49.17;;
23682;SDS011;24897;53.514;10.482;2022-12-18T16:55:14;78.60;;;50.27;;
23682;SDS011;24897;53.514;10.482;2022-12-18T16:57:59;70.77;;;48.27;;
23682;SDS011;24897;53.514;10.482;2022-12-18T17:00:43;76.97;;;47.43;;
23682;SDS011;24897;53.514;10.482;2022-12-18T17:03:28;74.23;;;48.10;;
23682;SDS011;24897;53.514;10.482;2022-12-18T17:06:12;70.63;;;46.40;;
23682;SDS011;24897;53.514;10.482;2022-12-18T17:09:01;67.77;;;45.27;;
23682;SDS011;24897;53.514;10.482;2022-12-18T17:11:47;71.30;;;46.93;;
23682;SDS011;24897;53.514;10.482;2022-12-18T17:14:32;67.77;;;46.07;;
23682;SDS011;24897;53.514;10.482;2022-12-18T17:17:17;70.33;;;46.87;;
23682;SDS011;24897;53.514;10.482;2022-12-18T17:20:02;66.90;;;46.57;;
23682;SDS011;24897;53.514;10.482;2022-12-18T17:22:46;68.83;;;47.00;;
23682;SDS011;24897;53.514;10.482;2022-12-18T17:25:31;69.30;;;47.53;;
23682;SDS011;24897;53.514;10.482;2022-12-18T17:28:15;64.70;;;45.20;;
23682;SDS011;24897;53.514;10.482;2022-12-18T17:30:59;63.00;;;45.60;;
23682;SDS011;24897;53.514;10.482;2022-12-18T17:33:44;68.47;;;46.83;;
23682;SDS011;24897;53.514;10.482;2022-12-18T17:36:28;68.20;;;46.77;;
23682;SDS011;24897;53.514;10.482;2022-12-18T17:39:16;67.20;;;47.23;;
23682;SDS011;24897;53.514;10.482;2022-12-18T17:42:02;63.17;;;46.33;;
23682;SDS011;24897;53.514;10.482;2022-12-18T17:44:46;67.20;;;47.63;;
23682;SDS011;24897;53.514;10.482;2022-12-18T17:47:31;63.73;;;46.17;;
23682;SDS011;24897;53.514;10.482;2022-12-18T17:50:16;61.93;;;44.47;;
23682;SDS011;24897;53.514;10.482;2022-12-18T17:53:00;61.17;;;44.53;;
23682;SDS011;24897;53.514;10.482;2022-12-18T17:55:55;64.60;;;45.73;;
23682;SDS011;24897;53.514;10.482;2022-12-18T17:58:40;65.67;;;45.27;;
23682;SDS011;24897;53.514;10.482;2022-12-18T18:01:25;82.00;;;54.23;;
23682;SDS011;24897;53.514;10.482;2022-12-18T18:04:10;70.80;;;47.93;;
23682;SDS011;24897;53.514;10.482;2022-12-18T18:06:54;68.63;;;46.80;;